Duncanville, AL

12:32 PM CDT on August 30, 2015 (GMT -0500)
APRSWXNET | | Change Station
CLOSE
Current Station
Personal Weather Station
Location: Duncanville, AL
Elevation: 337 ft
Nearby Weather Stations

Elev 337 ft 33.09 °N, 87.48 °W | Updated 25 minutes ago

Rain
Rain
73 °F
Feels Like 73 °F
N
2
Wind Variable Wind from NNW
Gusts 3.0 mph

Today
High -- | Low -- °F
--% Chance of Precip.
Yesterday
High -- | Low -- °F
Precip. -- in
6:22 AM 7:17 PM
Full, 99% visible
Pressure 30.12 in
Visibility 5.0 miles
Clouds Scattered Clouds 7000 ft
Overcast 9000 ft
Dew Point 71 °F
Humidity 94%
Rainfall in
Snow Depth Not available.
UV 3 out of 12
Pollen 8.10 out of 12
Air Quality Not available.
Flu Activity Not available.
METAR KTCL 301653Z 03003KT 5SM -RA BR SCT070 OVC090 23/21 A3013 RMK AO2 SLP199 P0008 T02280211
Pressure 30.12 in
Visibility 5.0 miles
Clouds Scattered Clouds 7000 ft
Overcast 9000 ft
Dew Point 71 °F
Humidity 94%
Rainfall in
Snow Depth Not available.
UV 3 out of 12
Pollen 8.10 out of 12
Air Quality Not available.
Flu Activity Not available.
METAR KTCL 301653Z 03003KT 5SM -RA BR SCT070 OVC090 23/21 A3013 RMK AO2 SLP199 P0008 T02280211

10-Day Weather Forecast

×

Almanac

Astronomy

Aug. 30, 2015 Rise Set
Actual Time
Civil Twilight
Nautical Twilight
Astronomical Twilight
Moon
Length of Visible Light
Length of Day
Tomorrow will be .
, % of the Moon is Illuminated

Today's Extremes

State Highs State Lows

Community

WunderPhotos

Upload Photos

1,851,014 photos uploaded!

WunderBlogs® & News

Nearby

Air Quality

  Air Quality AQ Index Pollutant
Not available.

Snow Depth

Station Depth Elevation

Earthquake Activity

City Distance Mag. Time & Date
Minimum magnitude displayed is 2.5.

Coastal Water Temperatures

Place Temperature

Stations

Nearby Weather Stations

Station Location Temp. Windchill Dew Point Humidity Wind Precip. Elev Updated Type